Pagrindinis puslapis
METAR-TAF:

METAR-TAF

Oro uostai :

Marathon, Florida, Jungtinės Amerikos Valstijos

platuma: 24-43-33N, ilguma: 081-02-52W, Aukštis: 2 m

Dabartinis oras

Ataskaita buvo paskelbta 1 valandą ir 11 minutes, ne 20:53 UTC
Vėjas 12 kt iš Rytų su gūsio iki 20 kt
Temperatūra 29°C
Drėgmė 55%
Slėgis 1017 hPa
Matomumas: 16.1 km
Giedras dangus

METAR: KMTH 172053Z AUTO 10012G20KT 10SM CLR 29/19 A3003 RMK AO2 SLP168 T02940189 56016

Laikas: 18:04 (22:04 UTC)

Prognozė

Ataskaita buvo paskelbta 4 valandos ir 39 minutes, ne 17:25 UTC
Prognozė galioja nuo 17 metu 18 UTC su 18 metu 18 UTC
Vėjas 12 kt iš Rytų su gūsio iki 20 kt
Matomumas: 10 km
Išsisklaidę debesys ne aukštis 3500 ft
Nuo 18 metu 0800 UTC
Vėjas 10 kt iš Rytų/Šiaurės Rytų
Matomumas: 10 km
Išsisklaidę debesys ne aukštis 2800 ft
Nuo 18 metu 1400 UTC
Vėjas 12 kt iš Rytų su gūsio iki 20 kt
Matomumas: 10 km
Išsisklaidę debesys ne aukštis 3000 ft

TAF: KMTH 171725Z 1718/1818 08012G20KT P6SM SCT035 FM180800 07010KT P6SM SCT028 FM181400 08012G20KT P6SM SCT030

Orai ataskaitas ir orų prognozės (METAR, TAF).

turimą stotys yra geltonos ir raudonos taškus žemėlapyje.

Perkelti pele per norėdami pamatyti stoties vardą.

Tada spustelėkite, norėdami matyti oro stebėjimo ir prognozės.

Norėdami pakeisti žemėlapį: spustelėkite ant žalios mygtukų su juodo kryžiaus žemyn,; žalią mygtuką su brūkšneliu, jei norite nutolinti; arba žalių rodyklių gretimoms žemėlapius.


METAR-TAF: